This is the latest recevied weather packets stored in our database for station/object KQ4WWD. If no packets are shown the sender has not sent any weather packets the latest 1 day(s).
| Time | Temp. | Humidity | Pressure | Rain* | Wind** | Luminosity | Snow |
|---|---|---|---|---|---|---|---|
| 1777993091 | 26.67° C | 69% | 1016.4 hPa | 0 mm | 1.79 m/s, 104° | 398 W/m² | - |
| 1777992790 | 26.67° C | 70% | 1016.2 hPa | 0 mm | 0 m/s | 829 W/m² | - |
| 1777992487 | 26.11° C | 69% | 1016.4 hPa | 0 mm | 2.24 m/s, 153° | 769 W/m² | - |
| 1777992186 | 25.56° C | 71% | 1016.3 hPa | 0 mm | 0.89 m/s, 124° | 696 W/m² | - |
| 1777991882 | 25.56° C | 71% | 1016.3 hPa | 0 mm | 3.13 m/s, 58° | 721 W/m² | - |
| 1777991579 | 26.11° C | 71% | 1016.3 hPa | 0 mm | 1.34 m/s, 94° | 707 W/m² | - |
| 1777991276 | 25.56° C | 72% | 1016.3 hPa | 0 mm | 1.34 m/s, 130° | 631 W/m² | - |
| 1777990973 | 25.56° C | 71% | 1016.5 hPa | 0 mm | 2.68 m/s, 124° | 572 W/m² | - |
| 1777990671 | 26.11° C | 72% | 1016.1 hPa | 0 mm | 1.34 m/s, 90° | 603 W/m² | - |
| 1777990368 | 25.56° C | 73% | 1015.9 hPa | 0 mm | 0.89 m/s, 201° | 586 W/m² | - |
| 1777990064 | 25° C | 74% | 1016.2 hPa | 0 mm | 1.34 m/s, 117° | 580 W/m² | - |
| 1777989761 | 24.44° C | 75% | 1016.1 hPa | 0 mm | 1.34 m/s, 120° | 536 W/m² | - |
| 1777989458 | 25° C | 74% | 1016.2 hPa | 0 mm | 3.58 m/s, 108° | 553 W/m² | - |
| 1777989154 | 24.44° C | 74% | 1016.3 hPa | 0 mm | 3.13 m/s, 115° | 539 W/m² | - |
| 1777988850 | 25° C | 74% | 1016 hPa | 0 mm | 1.34 m/s, 186° | 529 W/m² | - |
| 1777988548 | 24.44° C | 74% | 1016.2 hPa | 0 mm | 2.24 m/s, 135° | 512 W/m² | - |
| 1777988244 | 24.44° C | 75% | 1016.1 hPa | 0 mm | 1.34 m/s, 113° | 489 W/m² | - |
| 1777987940 | 23.89° C | 76% | 1016.2 hPa | 0 mm | 1.34 m/s, 121° | 438 W/m² | - |
| 1777987636 | 23.89° C | 76% | 1016.1 hPa | 0 mm | 1.34 m/s, 127° | 360 W/m² | - |
| 1777987334 | 23.89° C | 76% | 1016.2 hPa | 0 mm | 2.68 m/s, 135° | 340 W/m² | - |
| 1777987031 | 23.89° C | 77% | 1016.3 hPa | 0 mm | 1.34 m/s, 66° | 336 W/m² | - |
| 1777986729 | 23.33° C | 77% | 1016 hPa | 0 mm | 1.34 m/s, 164° | 114 W/m² | - |
| 1777986426 | 23.33° C | 77% | 1016.2 hPa | 0 mm | 1.34 m/s, 135° | 297 W/m² | - |
| 1777986125 | 22.78° C | 79% | 1016 hPa | 0 mm | 0 m/s | 294 W/m² | - |
| 1777985821 | 22.22° C | 81% | 1016.3 hPa | 0 mm | 0 m/s | 272 W/m² | - |
* Rain latest hour (hover to see other rain measurements)
** Current wind speed in m/s (hover to see current wind gust speed)